Terminal Aerodrome Forecast
Issued by NWS Pueblo, CO

Home | Current Version | Previous Version | Text Only | Print | Product List | Glossary On
Versions: 1 2 3 4 5 6 7 8 9 10 11 12 13 14 15 16 17 18 19 20
000
FTUS45 KPUB 211733
TAFPUB
TAF
KPUB 211733Z 2118/2218 VRB04KT P6SM OVC007
      TEMPO 2119/2120 SCT006 BKN012
     FM212000 VRB04KT P6SM SCT012 SCT080 BKN150
     FM220100 33009KT P6SM VCSH SCT020 BKN050
     FM220600 32010KT P6SM SCT050 BKN100
     FM221200 30008KT P6SM SCT100=

USA.gov is the U.S. government's official web portal to all federal, state and local government web resources and services.